• Join FlightAware (Why Join?)
  • Login
  • US Flag 
12:11AM EDT


 

Airport Tracker/Info


-or-


 

Live Flight TrackerFlight Track Log ✈ SWA378 ✈ 23-10-2013 ✈ KMSY - KLAS

Flight Track Log - Related Links

Times and Time Zones

All times are in EDT time to prevent confusion due to time zone crossing. See the SWA378 flight status page for this flight to view local times or setup timezone preferences in your user account.

Time Position Orientation Groundspeed Altitude Reporting Facility
EDT Latitude Longitude Course Direction KTS MPH feet Rate Location/Type
09:41AM 30.0222 -90.3264 303° West 183 211 2,600  Level Houston Center
09:41AM 30.0319 -90.3369 317° Northwest 187 215 3,100 2,220 Climbing Houston Center
09:42AM 30.0900 -90.4006 317° Northwest 220 253 5,900 3,300 Climbing Houston Center
09:43AM 30.1431 -90.4558 318° Northwest 246 283 9,900 2,760 Climbing Houston Center
09:44AM 30.2064 -90.5153 321° Northwest 287 330 11,600 2,160 Climbing Houston Center
09:45AM 30.2847 -90.5858 322° Northwest 348 400 14,400 2,640 Climbing Houston Center
09:46AM 30.3675 -90.6614 322° Northwest 374 430 17,100 2,460 Climbing Houston Center
09:47AM 30.4486 -90.7472 318° Northwest 392 451 19,500 2,520 Climbing Houston Center
09:48AM 30.5231 -90.8439 312° West 402 463 22,300 2,400 Climbing Houston Center
09:49AM 30.6006 -90.9411 313° West 410 472 24,500 2,400 Climbing Houston Center
09:50AM 30.6969 -91.0597 313° West 419 482 27,300 2,760 Climbing Houston Center
09:51AM 30.7756 -91.1392 319° Northwest 403 464 30,300 2,220 Climbing Houston Center
09:53AM 30.8628 -91.2183 322° Northwest 397 457 31,900 1,320 Climbing Houston Center
09:54AM 30.9533 -91.2967 323° Northwest 405 466 33,100 1,020 Climbing Houston Center
09:55AM 31.0472 -91.3922 319° Northwest 422 486 34,100 1,320 Climbing Houston Center
09:56AM 31.1022 -91.5203 297° West 393 452 35,900 1,380 Climbing Houston Center
09:57AM 31.1525 -91.6328 298° West 392 451 37,000 960 Climbing Houston Center
09:58AM 31.2036 -91.7456 298° West 393 452 38,000 480 Climbing Houston Center
09:59AM 31.2533 -91.8564 298° West 389 448 38,000  Level Houston Center
10:00AM 31.3125 -91.9900 297° West 387 445 38,000  Level Houston Center
10:01AM 31.3550 -92.0881 297° West 387 445 38,000  Level Houston Center
10:02AM 31.4044 -92.1997 297° West 387 445 38,000  Level Houston Center
10:03AM 31.4647 -92.3344 298° West 390 449 38,000  Level Houston Center
10:04AM 31.5144 -92.4475 297° West 391 450 38,000  Level Houston Center
10:05AM 31.5633 -92.5611 297° West 392 451 38,000  Level Houston Center
10:06AM 31.6136 -92.6753 297° West 394 453 38,000  Level Houston Center
10:07AM 31.6622 -92.7886 297° West 392 451 38,000  Level Houston Center
10:08AM 31.7114 -92.9014 297° West 390 449 38,000  Level Houston Center
10:09AM 31.7700 -93.0375 297° West 391 450 38,000  Level Houston Center
10:10AM 31.8219 -93.1575 297° West 389 448 38,000  Level Houston Center
10:11AM 31.8706 -93.2706 297° West 390 449 38,000  Level Houston Center
10:12AM 31.9097 -93.3872 292° West 386 444 38,000  Level Houston Center
10:13AM 31.9447 -93.5050 289° West 384 442 38,000  Level Houston Center
10:14AM 31.9797 -93.6239 289° West 384 442 38,000  Level Houston Center
10:15AM 32.0169 -93.7436 290° West 389 448 38,000  Level Houston Center
10:16AM 32.0594 -93.8786 290° West 383 441 38,000  Level Fort Worth Center
10:17AM 32.0942 -94.0000 289° West 388 447 38,000  Level Fort Worth Center
10:18AM 32.1308 -94.1211 290° West 394 453 38,000  Level Fort Worth Center
10:19AM 32.1672 -94.2450 289° West 394 453 38,000  Level Fort Worth Center
10:20AM 32.1972 -94.3619 287° West 388 447 38,000  Level Fort Worth Center
10:21AM 32.2381 -94.4956 290° West 388 447 38,000  Level Fort Worth Center
10:22AM 32.2722 -94.6172 288° West 388 447 38,000  Level Fort Worth Center
10:23AM 32.3083 -94.7439 289° West 388 447 38,000  Level Fort Worth Center
10:24AM 32.3442 -94.8658 289° West 400 460 38,000  Level Fort Worth Center
10:25AM 32.3756 -94.9683 290° West 400 460 38,000  Level Fort Worth Center
10:26AM 32.4158 -95.1100 289° West 405 466 38,000  Level Fort Worth Center
10:27AM 32.4514 -95.2372 288° West 405 466 38,000  Level Fort Worth Center
10:28AM 32.4889 -95.3617 290° West 405 466 38,000  Level Fort Worth Center
10:29AM 32.5244 -95.4892 288° West 405 466 38,000  Level Fort Worth Center
10:30AM 32.5617 -95.6139 290° West 405 466 38,000  Level Fort Worth Center
10:31AM 32.5947 -95.7417 287° West 405 466 38,000  Level Fort Worth Center
10:32AM 32.6319 -95.8667 290° West 405 466 38,000  Level Fort Worth Center
10:33AM 32.6667 -95.9944 288° West 405 466 38,000  Level Fort Worth Center
10:34AM 32.7036 -96.1222 289° West 405 466 38,000  Level Fort Worth Center
10:35AM 32.7383 -96.2503 288° West 405 466 38,000  Level Fort Worth Center
10:36AM 32.7728 -96.3781 288° West 405 466 38,000  Level Fort Worth Center
10:37AM 32.8072 -96.5039 288° West 405 466 38,000  Level Fort Worth Center
10:38AM 32.8436 -96.6344 288° West 405 466 38,000  Level Fort Worth Center
10:39AM 32.8775 -96.7578 288° West 405 466 38,000  Level Fort Worth Center
10:40AM 32.9158 -96.9011 288° West 409 471 38,000  Level Fort Worth Center
10:41AM 32.9517 -97.0322 288° West 409 471 38,000  Level Fort Worth Center
10:42AM 32.9814 -97.1458 287° West 409 471 38,000  Level Fort Worth Center
10:43AM 33.0192 -97.2872 288° West 403 464 38,000  Level Fort Worth Center
10:44AM 33.0567 -97.4208 289° West 414 476 38,000  Level Fort Worth Center
10:45AM 33.0900 -97.5472 288° West 414 476 38,000  Level Fort Worth Center
10:46AM 33.1233 -97.6764 287° West 414 476 38,000  Level Fort Worth Center
10:47AM 33.1583 -97.8031 288° West 414 476 38,000  Level Fort Worth Center
10:48AM 33.1914 -97.9322 287° West 414 476 38,000  Level Fort Worth Center
10:49AM 33.2261 -98.0617 288° West 414 476 38,000  Level Fort Worth Center
10:50AM 33.2589 -98.1911 287° West 409 471 38,000  Level Fort Worth Center
10:51AM 33.2914 -98.3206 287° West 409 471 38,000  Level Fort Worth Center
10:52AM 33.3217 -98.4475 286° West 403 464 38,000  Level Fort Worth Center
10:53AM 33.3539 -98.5725 287° West 397 457 38,000  Level Fort Worth Center
10:54AM 33.3881 -98.7047 287° West 403 464 38,000  Level Fort Worth Center
10:55AM 33.4203 -98.8344 287° West 408 470 38,000  Level Fort Worth Center
10:56AM 33.4542 -98.9644 287° West 408 470 38,000  Level Fort Worth Center
10:57AM 33.4839 -99.0872 286° West 416 479 38,000  Level Fort Worth Center
10:58AM 33.5175 -99.2172 287° West 416 479 38,000  Level Fort Worth Center
10:59AM 33.5511 -99.3500 287° West 416 479 38,000  Level Fort Worth Center
11:00AM 33.5822 -99.4781 286° West 416 479 38,000  Level Fort Worth Center
11:01AM 33.6136 -99.6083 286° West 416 479 38,000  Level Fort Worth Center
11:02AM 33.6444 -99.7439 285° West 416 479 38,000  Level Fort Worth Center
11:03AM 33.6775 -99.8744 287° West 416 479 38,000  Level Fort Worth Center
11:04AM 33.7083 -100.0053 286° West 416 479 38,000  Level Fort Worth Center
11:05AM 33.7431 -100.1386 287° West 421 484 38,000  Level Fort Worth Center
11:06AM 33.7714 -100.2694 285° West 416 479 38,000  Level Fort Worth Center
11:07AM 33.8036 -100.4031 286° West 416 479 38,000  Level Fort Worth Center
11:08AM 33.8358 -100.5342 287° West 421 484 38,000  Level Fort Worth Center
11:09AM 33.8678 -100.6728 286° West 421 484 38,000  Level Fort Worth Center
11:10AM 33.8958 -100.8014 285° West 415 478 38,000  Level Fort Worth Center
11:11AM 33.9297 -100.9356 287° West 422 486 38,000  Level Fort Worth Center
11:12AM 33.9650 -101.0872 286° West 427 491 38,000  Level Fort Worth Center
11:13AM 33.9906 -101.2061 285° West 421 484 38,000  Level Fort Worth Center
11:14AM 34.0236 -101.3553 285° West 416 479 38,000  Level Fort Worth Center
11:15AM 34.0508 -101.4792 285° West 421 484 38,000  Level Fort Worth Center
11:16AM 34.0878 -101.6264 287° West 421 484 38,000  Level Fort Worth Center
11:17AM 34.1164 -101.7633 284° West 421 484 38,000  Level Fort Worth Center
11:18AM 34.1472 -101.8978 286° West 421 484 38,000  Level Fort Worth Center
11:19AM 34.1692 -102.0014 284° West 418 481 38,000  Level Albuquerque Center
11:20AM 34.1989 -102.1336 285° West 417 480 38,000  Level Albuquerque Center
11:21AM 34.2275 -102.2683 284° West 416 479 38,000  Level Albuquerque Center
11:22AM 34.2556 -102.3986 285° West 410 472 38,000  Level Albuquerque Center
11:23AM 34.2897 -102.5583 285° West 408 470 38,000  Level Albuquerque Center
11:24AM 34.3189 -102.6925 285° West 409 471 38,000  Level Albuquerque Center
11:25AM 34.3469 -102.8264 284° West 410 472 38,000  Level Albuquerque Center
11:26AM 34.3753 -102.9603 284° West 411 473 38,000  Level Albuquerque Center
11:27AM 34.4081 -103.1056 285° West 416 479 38,000  Level Albuquerque Center
11:28AM 34.4364 -103.2400 284° West 411 473 38,000  Level Albuquerque Center
11:29AM 34.4658 -103.3767 285° West 413 475 38,000  Level Albuquerque Center
11:30AM 34.4942 -103.5131 284° West 413 475 38,000  Level Albuquerque Center
11:32AM 34.5219 -103.6489 284° West 412 474 38,000  Level Albuquerque Center
11:33AM 34.5553 -103.8094 284° West 415 478 38,000  Level Albuquerque Center
11:34AM 34.5825 -103.9467 284° West 415 478 38,000  Level Albuquerque Center
11:35AM 34.6111 -104.0850 284° West 416 479 38,000  Level Albuquerque Center
11:36AM 34.6378 -104.2231 283° West 415 478 38,000  Level Albuquerque Center
11:37AM 34.6667 -104.3628 284° West 420 483 38,000  Level Albuquerque Center
11:38AM 34.6947 -104.5019 284° West 419 482 38,000  Level Albuquerque Center
11:39AM 34.7222 -104.6400 284° West 416 479 38,000  Level Albuquerque Center
11:40AM 34.7486 -104.7783 283° West 416 479 38,000  Level Albuquerque Center
11:41AM 34.7756 -104.9147 284° West 412 474 38,000  Level Albuquerque Center
11:42AM 34.8072 -105.0747 284° West 412 474 38,000  Level Albuquerque Center
11:43AM 34.8336 -105.2114 283° West 412 474 38,000  Level Albuquerque Center
11:44AM 34.8597 -105.3472 283° West 410 472 38,000  Level Albuquerque Center
11:45AM 34.8861 -105.4831 283° West 409 471 38,000  Level Albuquerque Center
11:46AM 34.9086 -105.6083 282° West 407 468 38,000  Level Albuquerque Center
11:47AM 34.9342 -105.7428 283° West 407 468 38,000  Level Albuquerque Center
11:48AM 34.9633 -105.9036 283° West 405 466 38,000  Level Albuquerque Center
11:49AM 34.9889 -106.0392 283° West 406 467 38,000  Level Albuquerque Center
11:50AM 35.0131 -106.1731 282° West 404 465 38,000  Level Albuquerque Center
11:51AM 35.0378 -106.3081 283° West 404 465 38,000  Level Albuquerque Center
11:52AM 35.0617 -106.4431 282° West 404 465 38,000  Level Albuquerque Center
11:53AM 35.0864 -106.5781 283° West 405 466 38,000  Level Albuquerque Center
11:54AM 35.1136 -106.7267 283° West 405 466 38,000  Level Albuquerque Center
11:55AM 35.1389 -106.8694 282° West 403 464 38,000  Level Albuquerque Center
11:56AM 35.1631 -107.0022 283° West 401 461 38,000  Level Albuquerque Center
11:57AM 35.1892 -107.1464 283° West 404 465 38,000  Level Albuquerque Center
11:58AM 35.2125 -107.2767 282° West 399 459 38,000  Level Albuquerque Center
11:59AM 35.2669 -107.3864 301° West 395 455 38,000  Level Albuquerque Center
12:00PM 35.3389 -107.5089 306° West 397 457 38,000  Level Albuquerque Center
12:02PM 35.3981 -107.6161 304° West 398 458 38,000  Level Albuquerque Center
12:03PM 35.4703 -107.7381 306° West 395 455 38,000  Level Albuquerque Center
12:04PM 35.5342 -107.8417 307° West 397 457 38,000  Level Albuquerque Center
12:05PM 35.5828 -107.9747 294° West 390 449 38,000  Level Albuquerque Center
12:06PM 35.5861 -108.1042 272° West 394 453 38,000  Level Albuquerque Center
12:07PM 35.5900 -108.2539 272° West 392 451 38,000  Level Albuquerque Center
12:08PM 35.5933 -108.3828 272° West 393 452 38,000  Level Albuquerque Center
12:09PM 35.5964 -108.5339 271° West 395 455 38,000  Level Albuquerque Center
12:10PM 35.6000 -108.6622 272° West 392 451 38,000  Level Albuquerque Center
12:11PM 35.6033 -108.7917 272° West 393 452 38,000  Level Albuquerque Center
12:12PM 35.6067 -108.9428 272° West 394 453 38,000  Level Albuquerque Center
12:13PM 35.6089 -109.0731 271° West 395 455 38,000  Level Albuquerque Center
12:14PM 35.6139 -109.2283 272° West 402 463 38,000  Level Albuquerque Center
12:15PM 35.6161 -109.3586 271° West 400 460 38,000  Level Albuquerque Center
12:16PM 35.6181 -109.5119 271° West 403 464 38,000  Level Albuquerque Center
12:17PM 35.6197 -109.6411 271° West 397 457 38,000  Level Albuquerque Center
12:18PM 35.6197 -109.7956 270° West 401 461 38,000  Level Albuquerque Center
12:19PM 35.6217 -109.9272 271° West 403 464 38,000  Level Albuquerque Center
12:20PM 35.6233 -110.0592 271° West 404 465 38,000  Level Albuquerque Center
12:21PM 35.6267 -110.2133 272° West 404 465 38,000  Level Albuquerque Center
12:22PM 35.6272 -110.3489 270° West 410 472 38,000 -600 Level Albuquerque Center
12:23PM 35.6281 -110.5047 270° West 409 471 36,800 -1,020 Descending Albuquerque Center
12:24PM 35.6297 -110.6400 271° West 412 474 35,900 -1,020 Descending Albuquerque Center
12:25PM 35.6308 -110.8006 271° West 418 481 34,800 -960 Descending Albuquerque Center
12:26PM 35.6331 -110.9378 271° West 419 482 34,000 -420 Descending Albuquerque Center
12:27PM 35.6339 -111.0989 270° West 422 486 34,000 -420 Level Albuquerque Center
12:28PM 35.6369 -111.2383 272° West 425 489 33,200 -960 Descending Albuquerque Center
12:29PM 35.6369 -111.4025 270° West 430 495 32,100 -1,080 Descending Albuquerque Center
12:30PM 35.6364 -111.5497 270° West 437 503 31,000 -1,080 Descending Albuquerque Center
12:31PM 35.6372 -111.6925 270° West 428 493 30,000 -480 Descending Albuquerque Center
12:33PM 35.6375 -111.8306 270° West 411 473 30,000  Level Los Angeles Center
12:34PM 35.6367 -111.9761 270° West 426 490 30,000  Level Los Angeles Center
12:35PM 35.6367 -112.1517 270° West 431 496 30,000  Level Los Angeles Center
12:36PM 35.6356 -112.2975 270° West 429 494 30,000  Level Los Angeles Center
12:37PM 35.6356 -112.4444 270° West 432 497 30,000  Level Los Angeles Center
12:38PM 35.6350 -112.5906 270° West 433 498 30,000 -300 Level Los Angeles Center
12:39PM 35.6339 -112.7439 270° West 414 476 29,400 -840 Descending Los Angeles Center
12:40PM 35.6322 -112.8761 269° West 393 452 28,300 -720 Descending Los Angeles Center
12:41PM 35.6311 -113.0078 269° West 378 435 28,000 -180 Descending Los Angeles Center
12:42PM 35.6292 -113.1356 269° West 374 430 28,000  Level Los Angeles Center
12:43PM 35.6278 -113.2881 269° West 372 428 28,000 -540 Level Los Angeles Center
12:44PM 35.6267 -113.4172 269° West 379 436 26,900 -1,500 Descending Los Angeles Center
12:45PM 35.6250 -113.5408 269° West 373 429 24,900 -1,920 Descending Los Angeles Center
12:46PM 35.6397 -113.6572 279° West 355 409 23,000 -1,980 Descending Los Angeles Center
12:47PM 35.6592 -113.7836 281° West 375 432 20,900 -2,220 Descending Los Angeles Center
12:48PM 35.6803 -113.9344 280° West 378 435 18,500 -2,040 Descending Los Angeles Center
12:49PM 35.6967 -114.0561 279° West 368 423 16,700 -1,800 Descending Los Angeles Center
12:50PM 35.7131 -114.1739 280° West 357 411 14,800 -2,040 Descending Los Angeles Center
12:51PM 35.7278 -114.2800 280° West 350 403 13,100 -1,860 Descending Los Angeles Center
12:51PM 35.7294 -114.2947 278° West 343 395 12,900 -1,020 Descending Los Angeles Center
12:52PM 35.7594 -114.3917 291° West 324 373 12,000 -780 Descending Los Angeles Center
12:52PM 35.7636 -114.3925 351° North 329 379 12,000  Level Los Angeles Center
12:53PM 35.8325 -114.4278 337° Northwest 314 361 12,000 60 Level Los Angeles Center
12:53PM 35.8594 -114.4394 341° North 311 358 12,100 -840 Climbing Los Angeles Center
12:54PM 35.9244 -114.4711 338° Northwest 308 354 11,100 -1,500 Descending Los Angeles Center
12:55PM 35.9558 -114.4831 343° North 307 353 10,600 -900 Descending Los Angeles Center
12:55PM 35.9967 -114.5028 339° North 295 339 10,300 -600 Descending Los Angeles Center
12:56PM 36.0283 -114.5186 338° Northwest 287 330 10,000 -300 Descending Los Angeles Center
12:56PM 36.0442 -114.5611 295° West 252 290 10,000 -420 Level Los Angeles Center
12:57PM 36.0497 -114.5986 280° West 255 293 9,600 -900 Descending Los Angeles Center
12:57PM 36.0594 -114.6494 283° West 250 288 9,100 -1,020 Descending Los Angeles Center
12:58PM 36.0653 -114.6819 283° West 248 285 8,600 -1,080 Descending Los Angeles Center
12:58PM 36.0719 -114.7356 279° West 250 288 8,000 -1,020 Descending Los Angeles Center
12:59PM 36.0744 -114.7661 276° West 248 285 7,600 -1,020 Descending Los Angeles Center
12:59PM 36.0728 -114.8072 267° West 249 287 7,100 -1,080 Descending Los Angeles Center
01:00PM 36.0742 -114.8511 272° West 246 283 6,500 -1,380 Descending Los Angeles Center
01:00PM 36.0728 -114.8953 268° West 234 269 5,700 -1,500 Descending Los Angeles Center
01:01PM 36.0731 -114.9436 270° West 235 270 5,000 -1,080 Descending Los Angeles Center
01:01PM 36.0744 -114.9719 273° West 193 222 4,500 -1,080 Descending Los Angeles Center
01:02PM 36.0728 -115.0067 267° West 208 239 3,900 -900 Descending Los Angeles Center
01:02PM 36.0733 -115.0361 271° West 176 203 3,600 -780 Descending Los Angeles Center
01:03PM 36.0739 -115.0625 271° West 183 211 3,100 -900 Descending Los Angeles Center
01:03PM 36.0731 -115.0842 267° West 137 158 2,700 -780 Descending Los Angeles Center
01:04PM 36.0733 -115.1103 271° West 159 183 2,300 -660 Descending Los Angeles Center
01:06PM 36.0667 -115.1500 270° West  Level FlightAware Approximate
01:13PM 36.0801 -115.1523 270° West  Level Estimated